sensor_id;sensor_type;location;lat;lon;timestamp;temperature;humidity
34837;DHT22;21053;50.848;4.652;2022-08-03T00:01:04;19.70;99.90
34837;DHT22;21053;50.848;4.652;2022-08-03T00:03:33;19.70;99.90
34837;DHT22;21053;50.848;4.652;2022-08-03T00:06:00;19.60;99.90
34837;DHT22;21053;50.848;4.652;2022-08-03T00:10:55;19.40;99.90
34837;DHT22;21053;50.848;4.652;2022-08-03T00:13:21;19.40;99.90
34837;DHT22;21053;50.848;4.652;2022-08-03T00:15:47;19.50;99.90
34837;DHT22;21053;50.848;4.652;2022-08-03T00:18:12;19.50;99.90
34837;DHT22;21053;50.848;4.652;2022-08-03T00:20:38;19.60;99.90
34837;DHT22;21053;50.848;4.652;2022-08-03T00:23:04;19.50;99.90
34837;DHT22;21053;50.848;4.652;2022-08-03T00:25:33;19.50;99.90
34837;DHT22;21053;50.848;4.652;2022-08-03T00:27:59;19.40;99.90
34837;DHT22;21053;50.848;4.652;2022-08-03T00:30:25;19.50;99.90
34837;DHT22;21053;50.848;4.652;2022-08-03T00:32:52;19.50;99.90
34837;DHT22;21053;50.848;4.652;2022-08-03T00:35:18;19.50;99.90
34837;DHT22;21053;50.848;4.652;2022-08-03T00:37:45;19.50;99.90
34837;DHT22;21053;50.848;4.652;2022-08-03T00:40:14;19.30;99.90
34837;DHT22;21053;50.848;4.652;2022-08-03T00:42:53;19.30;99.90
34837;DHT22;21053;50.848;4.652;2022-08-03T00:45:20;19.30;99.90
34837;DHT22;21053;50.848;4.652;2022-08-03T00:47:48;19.20;99.90
34837;DHT22;21053;50.848;4.652;2022-08-03T00:50:14;19.20;99.90
34837;DHT22;21053;50.848;4.652;2022-08-03T00:52:42;19.20;99.90
34837;DHT22;21053;50.848;4.652;2022-08-03T00:55:10;19.20;99.90
34837;DHT22;21053;50.848;4.652;2022-08-03T00:57:36;19.20;99.90
34837;DHT22;21053;50.848;4.652;2022-08-03T01:00:05;19.20;99.90
34837;DHT22;21053;50.848;4.652;2022-08-03T01:02:32;19.10;99.90
34837;DHT22;21053;50.848;4.652;2022-08-03T01:04:58;19.10;99.90
34837;DHT22;21053;50.848;4.652;2022-08-03T01:07:40;19.00;99.90
34837;DHT22;21053;50.848;4.652;2022-08-03T01:10:12;19.00;99.90
34837;DHT22;21053;50.848;4.652;2022-08-03T01:15:31;18.90;99.90
34837;DHT22;21053;50.848;4.652;2022-08-03T01:20:50;19.00;99.90
34837;DHT22;21053;50.848;4.652;2022-08-03T01:23:27;18.90;99.90
34837;DHT22;21053;50.848;4.652;2022-08-03T01:29:02;18.90;99.90
34837;DHT22;21053;50.848;4.652;2022-08-03T01:31:36;19.00;99.90
34837;DHT22;21053;50.848;4.652;2022-08-03T01:34:06;19.00;99.90
34837;DHT22;21053;50.848;4.652;2022-08-03T01:36:35;19.00;99.90
34837;DHT22;21053;50.848;4.652;2022-08-03T01:39:04;19.10;99.90
34837;DHT22;21053;50.848;4.652;2022-08-03T01:44:18;19.00;99.90
34837;DHT22;21053;50.848;4.652;2022-08-03T01:46:46;19.00;99.90
34837;DHT22;21053;50.848;4.652;2022-08-03T01:49:15;19.00;99.90
34837;DHT22;21053;50.848;4.652;2022-08-03T01:54:10;18.90;99.90
34837;DHT22;21053;50.848;4.652;2022-08-03T01:56:36;18.80;99.90
34837;DHT22;21053;50.848;4.652;2022-08-03T01:59:02;18.70;99.90
34837;DHT22;21053;50.848;4.652;2022-08-03T02:01:29;18.70;99.90
34837;DHT22;21053;50.848;4.652;2022-08-03T02:03:57;18.70;99.90
34837;DHT22;21053;50.848;4.652;2022-08-03T02:06:25;18.70;99.90
34837;DHT22;21053;50.848;4.652;2022-08-03T02:08:53;18.80;99.90
34837;DHT22;21053;50.848;4.652;2022-08-03T02:11:20;18.70;99.90
34837;DHT22;21053;50.848;4.652;2022-08-03T02:13:48;18.70;99.90
34837;DHT22;21053;50.848;4.652;2022-08-03T02:16:15;18.70;99.90
34837;DHT22;21053;50.848;4.652;2022-08-03T02:18:41;18.70;99.90
34837;DHT22;21053;50.848;4.652;2022-08-03T02:21:08;18.60;99.90
34837;DHT22;21053;50.848;4.652;2022-08-03T02:23:36;18.60;99.90
34837;DHT22;21053;50.848;4.652;2022-08-03T02:26:04;18.60;99.90
34837;DHT22;21053;50.848;4.652;2022-08-03T02:28:33;18.60;99.90
34837;DHT22;21053;50.848;4.652;2022-08-03T02:31:02;18.60;99.90
34837;DHT22;21053;50.848;4.652;2022-08-03T02:33:35;18.50;99.90
34837;DHT22;21053;50.848;4.652;2022-08-03T02:36:03;18.50;99.90
34837;DHT22;21053;50.848;4.652;2022-08-03T02:38:35;18.30;99.90
34837;DHT22;21053;50.848;4.652;2022-08-03T02:41:04;18.30;99.90
34837;DHT22;21053;50.848;4.652;2022-08-03T02:43:30;18.30;99.90
34837;DHT22;21053;50.848;4.652;2022-08-03T02:45:57;18.30;99.90
34837;DHT22;21053;50.848;4.652;2022-08-03T02:48:29;18.30;99.90
34837;DHT22;21053;50.848;4.652;2022-08-03T02:50:57;18.30;99.90
34837;DHT22;21053;50.848;4.652;2022-08-03T02:53:24;18.30;99.90
34837;DHT22;21053;50.848;4.652;2022-08-03T02:55:54;18.30;99.90
34837;DHT22;21053;50.848;4.652;2022-08-03T02:58:26;18.30;99.90
34837;DHT22;21053;50.848;4.652;2022-08-03T03:03:22;18.10;99.90
34837;DHT22;21053;50.848;4.652;2022-08-03T03:05:48;18.20;99.90
34837;DHT22;21053;50.848;4.652;2022-08-03T03:08:15;18.20;99.90
34837;DHT22;21053;50.848;4.652;2022-08-03T03:10:42;18.10;99.90
34837;DHT22;21053;50.848;4.652;2022-08-03T03:13:09;18.10;99.90
34837;DHT22;21053;50.848;4.652;2022-08-03T03:15:35;18.10;99.90
34837;DHT22;21053;50.848;4.652;2022-08-03T03:18:05;18.10;99.90
34837;DHT22;21053;50.848;4.652;2022-08-03T03:20:35;18.10;99.90
34837;DHT22;21053;50.848;4.652;2022-08-03T03:23:03;18.10;99.90
34837;DHT22;21053;50.848;4.652;2022-08-03T03:25:32;18.10;99.90
34837;DHT22;21053;50.848;4.652;2022-08-03T03:27:58;18.00;99.90
34837;DHT22;21053;50.848;4.652;2022-08-03T03:30:25;18.00;99.90
34837;DHT22;21053;50.848;4.652;2022-08-03T03:32:51;17.90;99.90
34837;DHT22;21053;50.848;4.652;2022-08-03T03:37:49;18.00;99.90
34837;DHT22;21053;50.848;4.652;2022-08-03T03:40:15;17.90;99.90
34837;DHT22;21053;50.848;4.652;2022-08-03T03:42:43;17.90;99.90
34837;DHT22;21053;50.848;4.652;2022-08-03T03:45:09;17.80;99.90
34837;DHT22;21053;50.848;4.652;2022-08-03T03:47:36;17.80;99.90
34837;DHT22;21053;50.848;4.652;2022-08-03T03:52:32;17.80;99.90
34837;DHT22;21053;50.848;4.652;2022-08-03T03:54:58;17.80;99.90
34837;DHT22;21053;50.848;4.652;2022-08-03T03:57:24;17.80;99.90
34837;DHT22;21053;50.848;4.652;2022-08-03T03:59:52;17.80;99.90
34837;DHT22;21053;50.848;4.652;2022-08-03T04:02:18;17.80;99.90
34837;DHT22;21053;50.848;4.652;2022-08-03T04:04:44;17.80;99.90
34837;DHT22;21053;50.848;4.652;2022-08-03T04:07:28;17.80;99.90
34837;DHT22;21053;50.848;4.652;2022-08-03T04:10:16;17.80;99.90
34837;DHT22;21053;50.848;4.652;2022-08-03T04:13:03;17.80;99.90
34837;DHT22;21053;50.848;4.652;2022-08-03T04:15:32;17.70;99.90
34837;DHT22;21053;50.848;4.652;2022-08-03T04:17:59;17.70;99.90
34837;DHT22;21053;50.848;4.652;2022-08-03T04:20:29;17.60;99.90
34837;DHT22;21053;50.848;4.652;2022-08-03T04:22:55;17.60;99.90
34837;DHT22;21053;50.848;4.652;2022-08-03T04:25:25;17.50;99.90
34837;DHT22;21053;50.848;4.652;2022-08-03T04:27:54;17.50;99.90
34837;DHT22;21053;50.848;4.652;2022-08-03T04:30:22;17.50;99.90
34837;DHT22;21053;50.848;4.652;2022-08-03T04:32:50;17.60;99.90
34837;DHT22;21053;50.848;4.652;2022-08-03T04:35:16;17.60;99.90
34837;DHT22;21053;50.848;4.652;2022-08-03T04:37:44;17.50;99.90
34837;DHT22;21053;50.848;4.652;2022-08-03T04:40:21;17.50;99.90
34837;DHT22;21053;50.848;4.652;2022-08-03T04:42:49;17.40;99.90
34837;DHT22;21053;50.848;4.652;2022-08-03T04:45:15;17.50;99.90
34837;DHT22;21053;50.848;4.652;2022-08-03T04:50:10;17.50;99.90
34837;DHT22;21053;50.848;4.652;2022-08-03T04:52:42;17.50;99.90
34837;DHT22;21053;50.848;4.652;2022-08-03T04:55:08;17.60;99.90
34837;DHT22;21053;50.848;4.652;2022-08-03T04:57:33;17.70;99.90
34837;DHT22;21053;50.848;4.652;2022-08-03T04:59:59;17.70;99.90
34837;DHT22;21053;50.848;4.652;2022-08-03T05:07:22;17.70;99.90
34837;DHT22;21053;50.848;4.652;2022-08-03T05:09:47;17.80;99.90
34837;DHT22;21053;50.848;4.652;2022-08-03T05:12:15;17.80;99.90
34837;DHT22;21053;50.848;4.652;2022-08-03T05:17:10;18.10;99.90
34837;DHT22;21053;50.848;4.652;2022-08-03T05:19:36;18.10;99.90
34837;DHT22;21053;50.848;4.652;2022-08-03T05:24:32;18.20;99.90
34837;DHT22;21053;50.848;4.652;2022-08-03T05:26:58;18.30;99.90
34837;DHT22;21053;50.848;4.652;2022-08-03T05:29:23;18.40;99.90
34837;DHT22;21053;50.848;4.652;2022-08-03T05:31:51;18.50;99.90
34837;DHT22;21053;50.848;4.652;2022-08-03T05:34:18;18.60;99.90
34837;DHT22;21053;50.848;4.652;2022-08-03T05:36:43;18.80;99.90
34837;DHT22;21053;50.848;4.652;2022-08-03T05:39:10;19.00;99.90
34837;DHT22;21053;50.848;4.652;2022-08-03T05:41:37;19.10;99.90
34837;DHT22;21053;50.848;4.652;2022-08-03T05:44:03;19.20;99.90
34837;DHT22;21053;50.848;4.652;2022-08-03T05:46:31;19.40;99.90
34837;DHT22;21053;50.848;4.652;2022-08-03T05:48:56;19.50;99.90
34837;DHT22;21053;50.848;4.652;2022-08-03T05:51:23;19.60;99.90
34837;DHT22;21053;50.848;4.652;2022-08-03T05:53:50;19.70;99.90
34837;DHT22;21053;50.848;4.652;2022-08-03T05:56:20;19.90;99.90
34837;DHT22;21053;50.848;4.652;2022-08-03T05:58:47;20.00;99.90
34837;DHT22;21053;50.848;4.652;2022-08-03T06:01:15;20.10;99.90
34837;DHT22;21053;50.848;4.652;2022-08-03T06:03:42;20.20;99.90
34837;DHT22;21053;50.848;4.652;2022-08-03T06:06:08;20.30;99.90
34837;DHT22;21053;50.848;4.652;2022-08-03T06:08:38;20.40;99.90
34837;DHT22;21053;50.848;4.652;2022-08-03T06:11:05;20.50;99.90
34837;DHT22;21053;50.848;4.652;2022-08-03T06:13:30;20.50;99.90
34837;DHT22;21053;50.848;4.652;2022-08-03T06:15:56;20.60;99.90
34837;DHT22;21053;50.848;4.652;2022-08-03T06:18:22;20.70;99.90
34837;DHT22;21053;50.848;4.652;2022-08-03T06:20:52;20.80;99.90
34837;DHT22;21053;50.848;4.652;2022-08-03T06:23:19;20.90;99.90
34837;DHT22;21053;50.848;4.652;2022-08-03T06:28:14;21.20;99.90
34837;DHT22;21053;50.848;4.652;2022-08-03T06:30:41;21.30;99.90
34837;DHT22;21053;50.848;4.652;2022-08-03T06:33:09;21.40;99.90
34837;DHT22;21053;50.848;4.652;2022-08-03T06:35:37;21.50;99.90
34837;DHT22;21053;50.848;4.652;2022-08-03T06:38:04;21.70;99.90
34837;DHT22;21053;50.848;4.652;2022-08-03T06:40:33;21.80;99.90
34837;DHT22;21053;50.848;4.652;2022-08-03T06:43:02;21.90;99.90
34837;DHT22;21053;50.848;4.652;2022-08-03T06:45:28;22.00;99.90
34837;DHT22;21053;50.848;4.652;2022-08-03T06:50:25;22.30;99.90
34837;DHT22;21053;50.848;4.652;2022-08-03T06:52:52;22.50;99.90
34837;DHT22;21053;50.848;4.652;2022-08-03T06:55:20;22.50;99.90
34837;DHT22;21053;50.848;4.652;2022-08-03T06:57:48;22.70;99.90
34837;DHT22;21053;50.848;4.652;2022-08-03T07:00:19;22.80;99.90
34837;DHT22;21053;50.848;4.652;2022-08-03T07:05:14;23.10;99.90
34837;DHT22;21053;50.848;4.652;2022-08-03T07:07:41;23.20;99.90
34837;DHT22;21053;50.848;4.652;2022-08-03T07:10:13;23.30;99.90
34837;DHT22;21053;50.848;4.652;2022-08-03T07:17:36;23.80;99.90
34837;DHT22;21053;50.848;4.652;2022-08-03T07:20:06;24.00;99.90
34837;DHT22;21053;50.848;4.652;2022-08-03T07:22:35;24.20;99.90
34837;DHT22;21053;50.848;4.652;2022-08-03T07:25:03;24.30;99.90
34837;DHT22;21053;50.848;4.652;2022-08-03T07:27:32;24.60;99.90
34837;DHT22;21053;50.848;4.652;2022-08-03T07:30:03;24.70;99.90
34837;DHT22;21053;50.848;4.652;2022-08-03T07:32:29;24.90;99.90
34837;DHT22;21053;50.848;4.652;2022-08-03T07:34:56;25.00;99.80
34837;DHT22;21053;50.848;4.652;2022-08-03T07:37:23;25.20;99.50
34837;DHT22;21053;50.848;4.652;2022-08-03T07:42:18;25.60;99.30
34837;DHT22;21053;50.848;4.652;2022-08-03T07:44:44;25.80;97.70
34837;DHT22;21053;50.848;4.652;2022-08-03T07:47:11;26.00;97.90
34837;DHT22;21053;50.848;4.652;2022-08-03T07:49:40;26.20;97.20
34837;DHT22;21053;50.848;4.652;2022-08-03T07:52:08;26.40;96.60
34837;DHT22;21053;50.848;4.652;2022-08-03T07:54:55;26.60;95.70
34837;DHT22;21053;50.848;4.652;2022-08-03T07:57:20;26.70;93.60
34837;DHT22;21053;50.848;4.652;2022-08-03T07:59:49;26.80;93.80
34837;DHT22;21053;50.848;4.652;2022-08-03T08:02:15;27.00;93.70
34837;DHT22;21053;50.848;4.652;2022-08-03T08:04:43;27.20;93.40
34837;DHT22;21053;50.848;4.652;2022-08-03T08:07:09;27.30;93.30
34837;DHT22;21053;50.848;4.652;2022-08-03T08:09:37;27.50;92.40
34837;DHT22;21053;50.848;4.652;2022-08-03T08:12:03;27.70;91.70
34837;DHT22;21053;50.848;4.652;2022-08-03T08:14:30;27.80;91.30
34837;DHT22;21053;50.848;4.652;2022-08-03T08:16:57;27.80;90.20
34837;DHT22;21053;50.848;4.652;2022-08-03T08:21:55;28.20;91.00
34837;DHT22;21053;50.848;4.652;2022-08-03T08:24:26;28.40;89.30
34837;DHT22;21053;50.848;4.652;2022-08-03T08:29:24;28.80;89.30
34837;DHT22;21053;50.848;4.652;2022-08-03T08:31:49;28.90;88.20
34837;DHT22;21053;50.848;4.652;2022-08-03T08:34:21;29.10;88.50
34837;DHT22;21053;50.848;4.652;2022-08-03T08:36:50;29.40;86.30
34837;DHT22;21053;50.848;4.652;2022-08-03T08:39:15;29.70;86.20
34837;DHT22;21053;50.848;4.652;2022-08-03T08:41:43;29.90;82.20
34837;DHT22;21053;50.848;4.652;2022-08-03T08:44:15;30.10;81.20
34837;DHT22;21053;50.848;4.652;2022-08-03T08:46:41;30.40;80.20
34837;DHT22;21053;50.848;4.652;2022-08-03T08:49:08;30.70;81.20
34837;DHT22;21053;50.848;4.652;2022-08-03T08:54:06;31.10;77.80
34837;DHT22;21053;50.848;4.652;2022-08-03T08:56:35;31.40;76.70
34837;DHT22;21053;50.848;4.652;2022-08-03T08:59:02;31.60;78.70
34837;DHT22;21053;50.848;4.652;2022-08-03T09:01:31;31.70;75.30
34837;DHT22;21053;50.848;4.652;2022-08-03T09:06:26;31.80;77.30
34837;DHT22;21053;50.848;4.652;2022-08-03T09:16:19;32.50;72.10
34837;DHT22;21053;50.848;4.652;2022-08-03T09:18:49;32.90;71.80
34837;DHT22;21053;50.848;4.652;2022-08-03T09:21:25;33.10;70.40
34837;DHT22;21053;50.848;4.652;2022-08-03T09:26:26;33.50;68.80
34837;DHT22;21053;50.848;4.652;2022-08-03T09:33:56;34.00;69.30
34837;DHT22;21053;50.848;4.652;2022-08-03T09:36:41;33.90;67.10
34837;DHT22;21053;50.848;4.652;2022-08-03T09:39:10;34.00;69.60
34837;DHT22;21053;50.848;4.652;2022-08-03T09:41:40;34.10;68.30
34837;DHT22;21053;50.848;4.652;2022-08-03T09:44:07;34.00;67.20
34837;DHT22;21053;50.848;4.652;2022-08-03T09:46:49;34.00;67.00
34837;DHT22;21053;50.848;4.652;2022-08-03T09:49:22;34.10;67.20
34837;DHT22;21053;50.848;4.652;2022-08-03T09:51:55;34.10;68.60
34837;DHT22;21053;50.848;4.652;2022-08-03T09:59:30;34.40;66.80
34837;DHT22;21053;50.848;4.652;2022-08-03T10:01:58;34.70;68.90
34837;DHT22;21053;50.848;4.652;2022-08-03T10:04:24;34.70;64.60
34837;DHT22;21053;50.848;4.652;2022-08-03T10:07:06;34.40;65.20
34837;DHT22;21053;50.848;4.652;2022-08-03T10:12:13;34.60;62.10
34837;DHT22;21053;50.848;4.652;2022-08-03T10:14:40;34.60;65.30
34837;DHT22;21053;50.848;4.652;2022-08-03T10:17:08;34.60;64.80
34837;DHT22;21053;50.848;4.652;2022-08-03T10:19:35;34.70;64.90
34837;DHT22;21053;50.848;4.652;2022-08-03T10:22:44;34.70;64.50
34837;DHT22;21053;50.848;4.652;2022-08-03T10:25:10;34.70;65.20
34837;DHT22;21053;50.848;4.652;2022-08-03T10:27:39;35.00;60.50
34837;DHT22;21053;50.848;4.652;2022-08-03T10:30:11;35.20;62.20
34837;DHT22;21053;50.848;4.652;2022-08-03T10:32:43;35.00;64.30
34837;DHT22;21053;50.848;4.652;2022-08-03T10:35:18;35.10;63.60
34837;DHT22;21053;50.848;4.652;2022-08-03T10:37:48;35.40;62.40
34837;DHT22;21053;50.848;4.652;2022-08-03T10:40:18;35.70;59.70
34837;DHT22;21053;50.848;4.652;2022-08-03T10:42:47;35.60;59.70
34837;DHT22;21053;50.848;4.652;2022-08-03T10:45:23;35.10;59.80
34837;DHT22;21053;50.848;4.652;2022-08-03T10:47:50;35.10;60.30
34837;DHT22;21053;50.848;4.652;2022-08-03T10:50:20;35.40;62.80
34837;DHT22;21053;50.848;4.652;2022-08-03T10:52:53;35.60;59.10
34837;DHT22;21053;50.848;4.652;2022-08-03T10:55:30;35.80;57.10
34837;DHT22;21053;50.848;4.652;2022-08-03T10:58:14;35.60;58.50
34837;DHT22;21053;50.848;4.652;2022-08-03T11:00:48;35.60;59.10
34837;DHT22;21053;50.848;4.652;2022-08-03T11:03:17;35.60;60.10
34837;DHT22;21053;50.848;4.652;2022-08-03T11:05:46;36.00;62.10
34837;DHT22;21053;50.848;4.652;2022-08-03T11:08:20;36.30;59.70
34837;DHT22;21053;50.848;4.652;2022-08-03T11:10:47;36.50;58.60
34837;DHT22;21053;50.848;4.652;2022-08-03T11:13:17;36.50;59.10
34837;DHT22;21053;50.848;4.652;2022-08-03T11:15:50;36.60;57.40
34837;DHT22;21053;50.848;4.652;2022-08-03T11:18:16;36.50;57.40
34837;DHT22;21053;50.848;4.652;2022-08-03T11:20:52;36.10;57.80
34837;DHT22;21053;50.848;4.652;2022-08-03T11:26:18;36.30;56.70
34837;DHT22;21053;50.848;4.652;2022-08-03T11:28:48;36.20;58.00
34837;DHT22;21053;50.848;4.652;2022-08-03T11:34:06;36.40;59.70
34837;DHT22;21053;50.848;4.652;2022-08-03T11:39:21;36.60;57.30
34837;DHT22;21053;50.848;4.652;2022-08-03T11:42:49;36.50;55.40
34837;DHT22;21053;50.848;4.652;2022-08-03T11:47:22;36.50;59.70
34837;DHT22;21053;50.848;4.652;2022-08-03T11:49:49;36.50;58.80
34837;DHT22;21053;50.848;4.652;2022-08-03T11:52:18;36.50;58.20
34837;DHT22;21053;50.848;4.652;2022-08-03T11:54:44;36.60;57.20
34837;DHT22;21053;50.848;4.652;2022-08-03T11:57:12;36.60;58.10
34837;DHT22;21053;50.848;4.652;2022-08-03T11:59:52;36.70;56.60
34837;DHT22;21053;50.848;4.652;2022-08-03T12:02:24;36.70;57.90
34837;DHT22;21053;50.848;4.652;2022-08-03T12:04:58;36.70;57.10
34837;DHT22;21053;50.848;4.652;2022-08-03T12:07:27;36.30;54.40
34837;DHT22;21053;50.848;4.652;2022-08-03T12:10:15;35.60;57.80
34837;DHT22;21053;50.848;4.652;2022-08-03T12:12:40;35.50;57.00
34837;DHT22;21053;50.848;4.652;2022-08-03T12:15:13;34.90;56.60
34837;DHT22;21053;50.848;4.652;2022-08-03T12:17:39;35.20;58.70
34837;DHT22;21053;50.848;4.652;2022-08-03T12:22:39;35.80;55.40
34837;DHT22;21053;50.848;4.652;2022-08-03T12:30:02;36.30;58.50
34837;DHT22;21053;50.848;4.652;2022-08-03T12:32:28;36.50;57.60
34837;DHT22;21053;50.848;4.652;2022-08-03T12:34:57;36.60;54.60
34837;DHT22;21053;50.848;4.652;2022-08-03T12:37:28;36.00;54.50
34837;DHT22;21053;50.848;4.652;2022-08-03T12:39:57;35.80;55.80
34837;DHT22;21053;50.848;4.652;2022-08-03T12:42:35;35.40;56.10
34837;DHT22;21053;50.848;4.652;2022-08-03T12:47:59;35.50;56.50
34837;DHT22;21053;50.848;4.652;2022-08-03T12:50:30;35.90;57.00
34837;DHT22;21053;50.848;4.652;2022-08-03T12:53:03;36.30;56.00
34837;DHT22;21053;50.848;4.652;2022-08-03T12:55:32;36.30;55.40
34837;DHT22;21053;50.848;4.652;2022-08-03T12:58:00;36.50;55.60
34837;DHT22;21053;50.848;4.652;2022-08-03T13:00:29;36.30;53.70
34837;DHT22;21053;50.848;4.652;2022-08-03T13:05:42;36.40;54.90
34837;DHT22;21053;50.848;4.652;2022-08-03T13:08:24;36.40;53.80
34837;DHT22;21053;50.848;4.652;2022-08-03T13:10:51;36.20;55.00
34837;DHT22;21053;50.848;4.652;2022-08-03T13:13:17;36.40;54.30
34837;DHT22;21053;50.848;4.652;2022-08-03T13:15:46;36.60;55.30
34837;DHT22;21053;50.848;4.652;2022-08-03T13:18:14;36.80;55.60
34837;DHT22;21053;50.848;4.652;2022-08-03T13:20:41;36.90;53.20
34837;DHT22;21053;50.848;4.652;2022-08-03T13:23:10;36.90;52.40
34837;DHT22;21053;50.848;4.652;2022-08-03T13:33:05;35.70;53.20
34837;DHT22;21053;50.848;4.652;2022-08-03T13:38:00;35.50;53.20
34837;DHT22;21053;50.848;4.652;2022-08-03T13:42:59;35.60;53.40
34837;DHT22;21053;50.848;4.652;2022-08-03T13:47:57;36.00;53.50
34837;DHT22;21053;50.848;4.652;2022-08-03T13:50:24;36.10;53.80
34837;DHT22;21053;50.848;4.652;2022-08-03T13:52:52;36.20;54.20
34837;DHT22;21053;50.848;4.652;2022-08-03T13:57:49;36.60;52.60
34837;DHT22;21053;50.848;4.652;2022-08-03T14:03:07;36.70;53.00
34837;DHT22;21053;50.848;4.652;2022-08-03T14:05:36;36.80;52.70
34837;DHT22;21053;50.848;4.652;2022-08-03T14:08:03;36.90;51.70
34837;DHT22;21053;50.848;4.652;2022-08-03T14:10:34;36.90;53.40
34837;DHT22;21053;50.848;4.652;2022-08-03T14:13:02;36.60;53.50
34837;DHT22;21053;50.848;4.652;2022-08-03T14:15:28;36.10;54.00
34837;DHT22;21053;50.848;4.652;2022-08-03T14:20:25;35.80;56.10
34837;DHT22;21053;50.848;4.652;2022-08-03T14:22:51;35.70;52.70
34837;DHT22;21053;50.848;4.652;2022-08-03T14:25:16;35.40;53.70
34837;DHT22;21053;50.848;4.652;2022-08-03T14:27:45;35.10;54.90
34837;DHT22;21053;50.848;4.652;2022-08-03T14:30:11;35.20;55.60
34837;DHT22;21053;50.848;4.652;2022-08-03T14:32:39;35.30;54.50
34837;DHT22;21053;50.848;4.652;2022-08-03T14:35:05;35.30;55.30
34837;DHT22;21053;50.848;4.652;2022-08-03T14:37:30;35.60;52.30
34837;DHT22;21053;50.848;4.652;2022-08-03T14:40:00;35.70;54.80
34837;DHT22;21053;50.848;4.652;2022-08-03T14:42:41;35.80;53.70
34837;DHT22;21053;50.848;4.652;2022-08-03T14:45:12;35.80;53.60
34837;DHT22;21053;50.848;4.652;2022-08-03T14:47:39;35.90;52.00
34837;DHT22;21053;50.848;4.652;2022-08-03T14:50:10;35.50;55.20
34837;DHT22;21053;50.848;4.652;2022-08-03T14:52:35;35.20;57.60
34837;DHT22;21053;50.848;4.652;2022-08-03T14:55:04;35.00;56.40
34837;DHT22;21053;50.848;4.652;2022-08-03T14:57:32;35.00;54.70
34837;DHT22;21053;50.848;4.652;2022-08-03T15:00:00;35.00;53.50
34837;DHT22;21053;50.848;4.652;2022-08-03T15:07:26;35.40;54.60
34837;DHT22;21053;50.848;4.652;2022-08-03T15:09:52;35.50;54.80
34837;DHT22;21053;50.848;4.652;2022-08-03T15:12:19;35.60;52.80
34837;DHT22;21053;50.848;4.652;2022-08-03T15:19:46;35.70;53.30
34837;DHT22;21053;50.848;4.652;2022-08-03T15:24:43;35.90;53.30
34837;DHT22;21053;50.848;4.652;2022-08-03T15:27:08;35.80;52.20
34837;DHT22;21053;50.848;4.652;2022-08-03T15:29:35;35.80;52.70
34837;DHT22;21053;50.848;4.652;2022-08-03T15:32:04;35.80;53.80
34837;DHT22;21053;50.848;4.652;2022-08-03T15:36:58;35.70;54.50
34837;DHT22;21053;50.848;4.652;2022-08-03T15:39:27;35.50;53.70
34837;DHT22;21053;50.848;4.652;2022-08-03T15:41:54;35.60;54.10
34837;DHT22;21053;50.848;4.652;2022-08-03T15:46:51;35.60;53.50
34837;DHT22;21053;50.848;4.652;2022-08-03T15:49:20;35.50;52.20
34837;DHT22;21053;50.848;4.652;2022-08-03T15:51:48;35.30;54.40
34837;DHT22;21053;50.848;4.652;2022-08-03T15:54:17;35.30;53.10
34837;DHT22;21053;50.848;4.652;2022-08-03T15:56:43;35.20;53.00
34837;DHT22;21053;50.848;4.652;2022-08-03T15:59:12;35.00;53.30
34837;DHT22;21053;50.848;4.652;2022-08-03T16:01:38;35.00;53.50
34837;DHT22;21053;50.848;4.652;2022-08-03T16:04:07;34.70;53.40
34837;DHT22;21053;50.848;4.652;2022-08-03T16:06:38;34.70;56.00
34837;DHT22;21053;50.848;4.652;2022-08-03T16:09:07;34.70;55.60
34837;DHT22;21053;50.848;4.652;2022-08-03T16:11:36;34.60;55.00
34837;DHT22;21053;50.848;4.652;2022-08-03T16:14:02;34.60;53.90
34837;DHT22;21053;50.848;4.652;2022-08-03T16:16:29;34.70;54.80
34837;DHT22;21053;50.848;4.652;2022-08-03T16:18:55;34.70;54.70
34837;DHT22;21053;50.848;4.652;2022-08-03T16:21:20;34.50;55.40
34837;DHT22;21053;50.848;4.652;2022-08-03T16:28:50;34.40;54.10
34837;DHT22;21053;50.848;4.652;2022-08-03T16:31:17;34.50;54.70
34837;DHT22;21053;50.848;4.652;2022-08-03T16:33:49;34.40;53.70
34837;DHT22;21053;50.848;4.652;2022-08-03T16:38:46;34.40;53.40
34837;DHT22;21053;50.848;4.652;2022-08-03T16:41:13;34.30;55.20
34837;DHT22;21053;50.848;4.652;2022-08-03T16:43:38;34.40;56.20
34837;DHT22;21053;50.848;4.652;2022-08-03T16:46:07;34.40;56.20
34837;DHT22;21053;50.848;4.652;2022-08-03T16:48:32;34.50;59.20
34837;DHT22;21053;50.848;4.652;2022-08-03T16:50:59;34.40;55.80
34837;DHT22;21053;50.848;4.652;2022-08-03T16:55:56;34.40;54.90
34837;DHT22;21053;50.848;4.652;2022-08-03T16:58:24;34.30;56.60
34837;DHT22;21053;50.848;4.652;2022-08-03T17:00:53;34.20;56.70
34837;DHT22;21053;50.848;4.652;2022-08-03T17:05:48;34.20;55.80
34837;DHT22;21053;50.848;4.652;2022-08-03T17:08:15;34.20;55.50
34837;DHT22;21053;50.848;4.652;2022-08-03T17:10:43;34.20;55.90
34837;DHT22;21053;50.848;4.652;2022-08-03T17:13:09;34.20;56.80
34837;DHT22;21053;50.848;4.652;2022-08-03T17:15:35;34.10;57.50
34837;DHT22;21053;50.848;4.652;2022-08-03T17:18:04;34.00;58.30
34837;DHT22;21053;50.848;4.652;2022-08-03T17:20:33;34.00;56.90
34837;DHT22;21053;50.848;4.652;2022-08-03T17:23:24;33.80;59.00
34837;DHT22;21053;50.848;4.652;2022-08-03T17:25:56;33.60;61.50
34837;DHT22;21053;50.848;4.652;2022-08-03T17:28:25;33.40;63.80
34837;DHT22;21053;50.848;4.652;2022-08-03T17:30:54;33.20;64.40
34837;DHT22;21053;50.848;4.652;2022-08-03T17:33:41;33.00;67.70
34837;DHT22;21053;50.848;4.652;2022-08-03T17:38:39;32.40;69.50
34837;DHT22;21053;50.848;4.652;2022-08-03T17:41:05;32.30;67.50
34837;DHT22;21053;50.848;4.652;2022-08-03T17:43:34;32.10;71.20
34837;DHT22;21053;50.848;4.652;2022-08-03T17:46:02;32.00;71.10
34837;DHT22;21053;50.848;4.652;2022-08-03T17:48:31;31.80;73.80
34837;DHT22;21053;50.848;4.652;2022-08-03T17:51:13;31.70;74.00
34837;DHT22;21053;50.848;4.652;2022-08-03T17:53:43;31.40;77.30
34837;DHT22;21053;50.848;4.652;2022-08-03T17:56:24;31.30;79.20
34837;DHT22;21053;50.848;4.652;2022-08-03T18:04:15;30.80;81.40
34837;DHT22;21053;50.848;4.652;2022-08-03T18:06:49;30.50;82.20
34837;DHT22;21053;50.848;4.652;2022-08-03T18:09:18;30.40;83.20
34837;DHT22;21053;50.848;4.652;2022-08-03T18:11:48;30.10;82.40
34837;DHT22;21053;50.848;4.652;2022-08-03T18:14:19;30.00;84.30
34837;DHT22;21053;50.848;4.652;2022-08-03T18:17:26;29.80;85.80
34837;DHT22;21053;50.848;4.652;2022-08-03T18:19:47;29.70;85.70
34837;DHT22;21053;50.848;4.652;2022-08-03T18:22:13;29.50;86.10
34837;DHT22;21053;50.848;4.652;2022-08-03T18:24:39;29.40;86.40
34837;DHT22;21053;50.848;4.652;2022-08-03T18:27:09;29.30;86.20
34837;DHT22;21053;50.848;4.652;2022-08-03T18:29:37;29.20;87.50